createdAt,value
2023-03-10T00:00:06.011Z,10.30
2023-03-10T00:02:52.802Z,10.30
2023-03-10T00:05:39.772Z,10.30
2023-03-10T00:08:27.952Z,10.30
2023-03-10T00:11:15.057Z,10.30
2023-03-10T00:14:01.700Z,10.30
2023-03-10T00:16:47.974Z,10.30
2023-03-10T00:19:34.709Z,10.40
2023-03-10T00:22:21.098Z,10.40
2023-03-10T00:25:11.255Z,10.40
2023-03-10T00:27:57.970Z,10.40
2023-03-10T00:30:44.401Z,10.40
2023-03-10T00:33:32.685Z,10.40
2023-03-10T00:36:20.875Z,10.40
2023-03-10T00:39:11.665Z,10.40
2023-03-10T00:41:59.892Z,10.50
2023-03-10T00:44:47.565Z,10.40
2023-03-10T00:47:35.395Z,10.30
2023-03-10T00:50:22.195Z,10.30
2023-03-10T00:53:08.481Z,10.30
2023-03-10T00:55:59.857Z,10.30
2023-03-10T00:58:51.466Z,10.40
2023-03-10T01:01:40.607Z,10.40
2023-03-10T01:04:27.306Z,10.40
2023-03-10T01:07:14.249Z,10.50
2023-03-10T01:10:00.701Z,10.50
2023-03-10T01:12:46.987Z,10.50
2023-03-10T01:15:34.842Z,10.60
2023-03-10T01:18:22.413Z,10.50
2023-03-10T01:21:08.797Z,10.50
2023-03-10T01:23:55.697Z,10.60
2023-03-10T01:26:42.026Z,10.50
2023-03-10T01:29:29.632Z,10.40
2023-03-10T01:32:17.411Z,10.30
2023-03-10T01:35:04.585Z,10.20
2023-03-10T01:37:50.958Z,10.10
2023-03-10T01:40:38.912Z,10.10
2023-03-10T01:43:29.314Z,10.10
2023-03-10T01:46:41.792Z,9.90
2023-03-10T01:49:40.464Z,10.00
2023-03-10T01:52:30.745Z,10.00
2023-03-10T01:55:21.091Z,10.00
2023-03-10T01:58:09.832Z,10.10
2023-03-10T02:00:56.572Z,10.10
2023-03-10T02:03:48.514Z,10.00
2023-03-10T02:06:41.718Z,10.10
2023-03-10T02:09:28.785Z,10.10
2023-03-10T02:12:17.643Z,10.10
2023-03-10T02:15:04.798Z,10.20
2023-03-10T02:17:53.088Z,10.20
2023-03-10T02:20:45.467Z,10.20
2023-03-10T02:23:45.038Z,10.20
2023-03-10T02:26:41.610Z,10.20
2023-03-10T02:29:35.576Z,10.20
2023-03-10T02:32:24.624Z,10.20
2023-03-10T02:35:12.228Z,10.20
2023-03-10T02:38:07.269Z,10.20
2023-03-10T02:40:55.731Z,10.20
2023-03-10T02:43:47.443Z,10.30
2023-03-10T02:46:41.661Z,10.30
2023-03-10T02:49:28.718Z,10.30
2023-03-10T02:52:26.783Z,10.30
2023-03-10T02:55:16.307Z,10.30
2023-03-10T02:58:03.898Z,10.40
2023-03-10T03:00:51.562Z,10.40
2023-03-10T03:03:40.643Z,10.40
2023-03-10T03:06:29.807Z,10.40
2023-03-10T03:09:16.103Z,10.40
2023-03-10T03:12:05.669Z,10.50
2023-03-10T03:14:52.485Z,10.50
2023-03-10T03:17:39.378Z,10.50
2023-03-10T03:20:28.997Z,10.50
2023-03-10T03:23:15.948Z,10.50
2023-03-10T03:26:02.556Z,10.50
2023-03-10T03:28:49.719Z,10.60
2023-03-10T03:31:41.096Z,10.50
2023-03-10T03:34:32.647Z,10.60
2023-03-10T03:37:23.952Z,10.60
2023-03-10T03:40:13.173Z,10.60
2023-03-10T03:43:02.445Z,10.70
2023-03-10T03:45:50.101Z,10.70
2023-03-10T03:48:38.182Z,10.70
2023-03-10T03:51:27.630Z,10.80
2023-03-10T03:54:15.759Z,10.80
2023-03-10T03:57:03.771Z,10.80
2023-03-10T03:59:50.532Z,10.80
2023-03-10T04:02:37.463Z,10.80
2023-03-10T04:05:24.883Z,10.80
2023-03-10T04:08:13.104Z,10.90
2023-03-10T04:11:00.972Z,10.90
2023-03-10T04:13:49.306Z,10.90
2023-03-10T04:16:36.707Z,10.80
2023-03-10T04:19:24.793Z,10.80
2023-03-10T04:22:16.414Z,10.90
2023-03-10T04:25:06.806Z,10.80
2023-03-10T04:27:55.764Z,10.90
2023-03-10T04:30:43.342Z,10.90
2023-03-10T04:33:31.817Z,10.90
2023-03-10T04:36:19.371Z,10.90
2023-03-10T04:39:09.798Z,11.00
2023-03-10T04:41:56.447Z,10.90
2023-03-10T04:44:45.031Z,10.90
2023-03-10T04:47:32.442Z,10.90
2023-03-10T04:50:20.955Z,10.90
2023-03-10T04:53:08.557Z,10.90
2023-03-10T04:55:55.560Z,10.80
2023-03-10T04:58:43.110Z,10.80
2023-03-10T05:01:33.147Z,10.70
2023-03-10T05:04:23.424Z,10.60
2023-03-10T05:07:11.689Z,10.60
2023-03-10T05:10:03.759Z,10.60
2023-03-10T05:12:51.656Z,10.50
2023-03-10T05:15:39.547Z,10.50
2023-03-10T05:18:27.982Z,10.50
2023-03-10T05:21:14.996Z,10.40
2023-03-10T05:24:03.534Z,10.40
2023-03-10T05:26:50.116Z,10.30
2023-03-10T05:29:38.731Z,10.30
2023-03-10T05:32:35.475Z,10.20
2023-03-10T05:35:23.911Z,10.10
2023-03-10T05:38:11.085Z,10.10
2023-03-10T05:40:58.075Z,10.10
2023-03-10T05:43:44.986Z,10.00
2023-03-10T05:46:34.402Z,10.00
2023-03-10T05:49:22.113Z,10.00
2023-03-10T05:52:10.310Z,10.00
2023-03-10T05:55:02.689Z,10.10
2023-03-10T05:57:49.553Z,10.10
2023-03-10T06:00:37.074Z,10.10
2023-03-10T06:03:24.795Z,10.10
2023-03-10T06:06:12.410Z,10.10
2023-03-10T06:09:01.017Z,10.10
2023-03-10T06:11:47.771Z,10.10
2023-03-10T06:14:34.290Z,10.20
2023-03-10T06:17:20.872Z,10.30
2023-03-10T06:20:07.671Z,10.40
2023-03-10T06:22:54.201Z,10.40
2023-03-10T06:25:42.431Z,10.40
2023-03-10T06:28:32.859Z,10.50
2023-03-10T06:31:21.277Z,10.50
2023-03-10T06:34:07.913Z,10.60
2023-03-10T06:36:56.010Z,10.60
2023-03-10T06:39:42.742Z,10.60
2023-03-10T06:42:33.051Z,10.60
2023-03-10T06:45:19.674Z,10.70
2023-03-10T06:48:06.642Z,10.80
2023-03-10T06:50:58.350Z,11.00
2023-03-10T06:53:45.580Z,11.30
2023-03-10T06:56:32.282Z,11.40
2023-03-10T06:59:20.665Z,11.50
2023-03-10T07:02:07.939Z,11.30
2023-03-10T07:04:54.842Z,11.30
2023-03-10T07:07:41.987Z,11.40
2023-03-10T07:10:28.735Z,11.80
2023-03-10T07:13:17.160Z,12.20
2023-03-10T07:16:05.325Z,13.00
2023-03-10T07:18:51.922Z,13.50
2023-03-10T07:21:38.764Z,13.60
2023-03-10T07:24:25.023Z,13.80
2023-03-10T07:27:11.913Z,13.50
2023-03-10T07:29:58.579Z,13.40
2023-03-10T07:32:46.845Z,12.70
2023-03-10T07:35:36.686Z,12.30
2023-03-10T07:38:23.648Z,11.80
2023-03-10T07:41:11.180Z,11.30
2023-03-10T07:43:57.818Z,11.10
2023-03-10T07:46:44.622Z,10.90
2023-03-10T07:49:32.486Z,10.50
2023-03-10T07:52:19.503Z,10.40
2023-03-10T07:55:07.151Z,10.30
2023-03-10T07:57:56.654Z,10.20
2023-03-10T08:00:43.345Z,10.00
2023-03-10T08:03:30.485Z,9.80
2023-03-10T08:06:20.260Z,9.50
2023-03-10T08:09:07.036Z,9.40
2023-03-10T08:11:54.031Z,9.20
2023-03-10T08:14:40.461Z,9.20
2023-03-10T08:17:30.843Z,9.20
2023-03-10T08:20:18.202Z,9.30
2023-03-10T08:23:05.978Z,9.40
2023-03-10T08:25:53.072Z,9.40
2023-03-10T08:28:40.207Z,9.40
2023-03-10T08:31:26.774Z,9.60
2023-03-10T08:34:13.643Z,9.80
2023-03-10T08:37:02.692Z,10.00
2023-03-10T08:39:53.914Z,10.10
2023-03-10T08:42:40.866Z,10.10
2023-03-10T08:45:27.855Z,10.10
2023-03-10T08:48:14.453Z,10.10
2023-03-10T08:51:01.546Z,10.20
2023-03-10T08:53:49.286Z,10.20
2023-03-10T08:56:37.364Z,10.30
2023-03-10T08:59:24.360Z,10.40
2023-03-10T09:02:14.801Z,10.40
2023-03-10T09:05:01.422Z,10.40
2023-03-10T09:07:47.736Z,10.30
2023-03-10T09:10:34.562Z,10.30
2023-03-10T09:13:23.066Z,10.40
2023-03-10T09:16:11.364Z,10.30
2023-03-10T09:18:59.080Z,10.20
2023-03-10T09:21:45.582Z,10.20
2023-03-10T09:24:32.250Z,10.20
2023-03-10T09:27:19.000Z,10.30
2023-03-10T09:30:08.211Z,10.30
2023-03-10T09:32:55.693Z,10.30
2023-03-10T09:35:52.503Z,10.40
2023-03-10T09:38:39.521Z,10.50
2023-03-10T09:42:05.374Z,10.60
2023-03-10T09:45:00.877Z,10.60
2023-03-10T09:48:11.272Z,10.70
2023-03-10T09:51:01.013Z,10.70
2023-03-10T09:54:06.452Z,10.60
2023-03-10T09:56:55.657Z,10.60
2023-03-10T09:59:44.667Z,10.70
2023-03-10T10:02:36.397Z,10.70
2023-03-10T10:05:31.345Z,10.80
2023-03-10T10:08:22.707Z,10.90
2023-03-10T10:11:15.531Z,10.80
2023-03-10T10:14:27.984Z,10.70
2023-03-10T10:17:27.200Z,10.50
2023-03-10T10:20:18.265Z,10.40
2023-03-10T10:23:14.767Z,10.50
2023-03-10T10:26:09.512Z,10.40
2023-03-10T10:28:58.836Z,10.30
2023-03-10T10:32:04.063Z,10.40
2023-03-10T10:34:51.771Z,10.60
2023-03-10T10:37:42.933Z,10.60
2023-03-10T10:40:34.423Z,10.60
2023-03-10T10:43:23.075Z,10.80
2023-03-10T10:46:11.326Z,11.00
2023-03-10T10:49:07.540Z,11.20
2023-03-10T10:52:00.147Z,11.20
2023-03-10T10:54:56.728Z,11.20
2023-03-10T10:57:55.518Z,11.30
2023-03-10T11:00:42.324Z,11.20
2023-03-10T11:03:33.326Z,11.30
2023-03-10T11:06:27.117Z,11.40
2023-03-10T11:09:18.181Z,11.40
2023-03-10T11:12:10.176Z,11.40
2023-03-10T11:15:15.052Z,11.20
2023-03-10T11:18:09.075Z,11.10
2023-03-10T11:21:02.650Z,11.00
2023-03-10T11:23:59.911Z,10.80
2023-03-10T11:26:53.587Z,10.80
2023-03-10T11:29:59.150Z,10.80
2023-03-10T11:33:00.064Z,10.70
2023-03-10T11:35:49.977Z,10.70
2023-03-10T11:38:42.342Z,10.70
2023-03-10T11:41:34.215Z,10.70
2023-03-10T11:44:26.914Z,10.80
2023-03-10T11:47:20.796Z,10.80
2023-03-10T11:50:21.809Z,10.80
2023-03-10T11:53:16.217Z,10.80
2023-03-10T11:56:03.882Z,10.90
2023-03-10T11:58:54.768Z,10.80
2023-03-10T12:01:45.902Z,10.80
2023-03-10T12:04:38.528Z,10.90
2023-03-10T12:07:30.598Z,10.80
2023-03-10T12:10:18.823Z,10.80
2023-03-10T12:13:06.692Z,10.80
2023-03-10T12:15:57.208Z,10.80
2023-03-10T12:18:44.116Z,10.60
2023-03-10T12:21:32.176Z,10.60
2023-03-10T12:24:46.825Z,10.60
2023-03-10T12:28:17.209Z,10.70
2023-03-10T12:31:06.742Z,10.90
2023-03-10T12:33:54.845Z,10.90
2023-03-10T12:36:44.391Z,10.90
2023-03-10T12:39:42.192Z,10.80
2023-03-10T12:42:34.857Z,10.70
2023-03-10T12:45:28.543Z,10.60
2023-03-10T12:48:20.090Z,10.70
2023-03-10T12:51:13.888Z,10.60
2023-03-10T12:54:07.695Z,10.50
2023-03-10T12:57:00.290Z,10.40
2023-03-10T12:59:57.402Z,10.40
2023-03-10T13:02:50.179Z,10.30
2023-03-10T13:05:40.975Z,10.20
2023-03-10T13:08:35.147Z,10.00
2023-03-10T13:11:31.939Z,10.00
2023-03-10T13:14:20.743Z,10.00
2023-03-10T13:17:20.906Z,10.10
2023-03-10T13:20:13.211Z,10.10
2023-03-10T13:23:00.375Z,10.00
2023-03-10T13:25:53.549Z,10.10
2023-03-10T13:28:40.242Z,10.00
2023-03-10T13:31:29.265Z,10.00
2023-03-10T13:34:21.201Z,9.80
2023-03-10T13:37:11.701Z,9.80
2023-03-10T13:40:09.329Z,9.70
2023-03-10T13:42:55.853Z,9.60
2023-03-10T13:45:43.347Z,9.70
2023-03-10T13:48:32.255Z,9.80
2023-03-10T13:51:23.057Z,9.80
2023-03-10T13:54:20.338Z,9.70
2023-03-10T13:57:16.067Z,9.50
2023-03-10T14:00:06.771Z,9.50
2023-03-10T14:02:58.942Z,9.50
2023-03-10T14:05:46.953Z,9.50
2023-03-10T14:08:34.642Z,9.40
2023-03-10T14:11:43.134Z,9.40
2023-03-10T14:14:31.446Z,9.40
2023-03-10T14:17:31.726Z,9.40
2023-03-10T14:20:27.091Z,9.40
2023-03-10T14:23:29.172Z,9.40
2023-03-10T14:26:18.783Z,9.40
2023-03-10T14:29:13.509Z,9.30
2023-03-10T14:31:59.790Z,9.30
2023-03-10T14:34:47.724Z,9.30
2023-03-10T14:37:34.260Z,9.30
2023-03-10T14:40:23.336Z,9.30
2023-03-10T14:43:16.607Z,9.20
2023-03-10T14:46:03.221Z,9.20
2023-03-10T14:48:50.257Z,9.30
2023-03-10T14:51:37.178Z,9.30
2023-03-10T14:54:25.228Z,9.20
2023-03-10T14:57:14.683Z,9.10
2023-03-10T15:00:04.219Z,9.10
2023-03-10T15:02:51.286Z,9.00
2023-03-10T15:05:47.784Z,9.00
2023-03-10T15:08:35.159Z,8.90
2023-03-10T15:11:35.952Z,8.90
2023-03-10T15:14:23.601Z,8.90
2023-03-10T15:17:13.841Z,8.90
2023-03-10T15:20:00.618Z,8.90
2023-03-10T15:22:47.323Z,8.80
2023-03-10T15:25:34.027Z,8.80
2023-03-10T15:28:21.215Z,8.80
2023-03-10T15:31:08.177Z,8.80
2023-03-10T15:33:56.013Z,8.70
2023-03-10T15:36:42.849Z,8.70
2023-03-10T15:39:32.622Z,8.70
2023-03-10T15:42:19.944Z,8.70
2023-03-10T15:45:08.441Z,8.80
2023-03-10T15:47:55.930Z,8.80
2023-03-10T15:50:46.791Z,8.70
2023-03-10T15:53:33.336Z,8.70
2023-03-10T15:56:19.678Z,8.50
2023-03-10T15:59:07.472Z,8.40
2023-03-10T16:01:54.222Z,8.40
2023-03-10T16:04:42.030Z,8.30
2023-03-10T16:07:30.127Z,8.40
2023-03-10T16:10:18.169Z,8.50
2023-03-10T16:13:04.554Z,8.60
2023-03-10T16:15:52.533Z,8.60
2023-03-10T16:18:39.750Z,8.60
2023-03-10T16:21:26.362Z,8.60
2023-03-10T16:24:14.544Z,8.60
2023-03-10T16:27:01.478Z,8.60
2023-03-10T16:29:48.410Z,8.50
2023-03-10T16:32:34.946Z,8.60
2023-03-10T16:35:21.620Z,8.60
2023-03-10T16:38:07.974Z,8.60
2023-03-10T16:40:57.928Z,8.60
2023-03-10T16:43:44.694Z,8.60
2023-03-10T16:46:32.107Z,8.60
2023-03-10T16:49:19.094Z,8.50
2023-03-10T16:52:10.535Z,8.40
2023-03-10T16:54:58.807Z,8.30
2023-03-10T16:57:46.935Z,8.20
2023-03-10T17:00:33.694Z,8.10
2023-03-10T17:03:20.511Z,8.10
2023-03-10T17:06:09.373Z,8.10
2023-03-10T17:08:56.467Z,8.10
2023-03-10T17:11:46.392Z,8.10
2023-03-10T17:14:34.111Z,8.00
2023-03-10T17:17:20.608Z,7.90
2023-03-10T17:20:08.110Z,7.90
2023-03-10T17:22:54.805Z,7.80
2023-03-10T17:25:43.279Z,7.90
2023-03-10T17:28:30.354Z,7.80
2023-03-10T17:31:20.556Z,7.60
2023-03-10T17:34:10.628Z,7.30
2023-03-10T17:36:57.190Z,7.00
2023-03-10T17:39:43.555Z,6.80
2023-03-10T17:42:30.957Z,6.70
2023-03-10T17:45:17.901Z,6.80
2023-03-10T17:48:05.813Z,6.80
2023-03-10T17:50:52.588Z,6.90
2023-03-10T17:53:39.626Z,6.90
2023-03-10T17:56:26.690Z,7.00
2023-03-10T17:59:14.913Z,7.00
2023-03-10T18:02:03.570Z,7.00
2023-03-10T18:04:51.499Z,7.00
2023-03-10T18:07:38.071Z,7.00
2023-03-10T18:10:24.709Z,7.00
2023-03-10T18:13:12.467Z,7.00
2023-03-10T18:15:58.934Z,7.10
2023-03-10T18:18:45.963Z,7.00
2023-03-10T18:21:34.015Z,7.10
2023-03-10T18:24:20.347Z,7.10
2023-03-10T18:27:07.278Z,7.10
2023-03-10T18:29:53.562Z,7.10
2023-03-10T18:32:39.837Z,7.10
2023-03-10T18:35:26.376Z,7.10
2023-03-10T18:38:15.266Z,7.10
2023-03-10T18:41:03.649Z,7.10
2023-03-10T18:43:50.518Z,7.10
2023-03-10T18:46:37.304Z,7.00
2023-03-10T18:49:24.733Z,6.90
2023-03-10T18:52:15.780Z,6.90
2023-03-10T18:55:04.722Z,6.80
2023-03-10T18:57:50.972Z,6.70
2023-03-10T19:00:38.394Z,6.50
2023-03-10T19:03:25.657Z,6.40
2023-03-10T19:06:12.496Z,6.30
2023-03-10T19:08:59.456Z,6.30
2023-03-10T19:11:48.067Z,6.30
2023-03-10T19:14:34.899Z,6.30
2023-03-10T19:17:21.457Z,6.30
2023-03-10T19:20:11.559Z,6.30
2023-03-10T19:22:58.303Z,6.20
2023-03-10T19:25:44.745Z,6.10
2023-03-10T19:28:33.218Z,6.10
2023-03-10T19:31:19.852Z,6.20
2023-03-10T19:34:06.758Z,6.20
2023-03-10T19:36:53.778Z,6.20
2023-03-10T19:39:40.442Z,6.30
2023-03-10T19:42:26.899Z,6.10
2023-03-10T19:45:16.296Z,6.00
2023-03-10T19:48:03.289Z,5.80
2023-03-10T19:50:54.479Z,5.60
2023-03-10T19:53:40.979Z,5.50
2023-03-10T19:56:27.412Z,5.50
2023-03-10T19:59:14.860Z,5.60
2023-03-10T20:02:02.918Z,5.60
2023-03-10T20:04:50.538Z,5.50
2023-03-10T20:07:37.216Z,5.50
2023-03-10T20:10:23.658Z,5.60
2023-03-10T20:13:10.011Z,5.60
2023-03-10T20:15:56.982Z,5.50
2023-03-10T20:18:44.920Z,5.50
2023-03-10T20:21:31.354Z,5.50
2023-03-10T20:24:19.103Z,5.50
2023-03-10T20:27:05.999Z,5.50
2023-03-10T20:29:52.855Z,5.50
2023-03-10T20:32:39.428Z,5.50
2023-03-10T20:35:29.778Z,5.50
2023-03-10T20:38:16.505Z,5.50
2023-03-10T20:41:03.454Z,5.50
2023-03-10T20:43:50.314Z,5.50
2023-03-10T20:46:36.980Z,5.40
2023-03-10T20:49:23.426Z,5.40
2023-03-10T20:52:11.188Z,5.50
2023-03-10T20:54:57.712Z,5.40
2023-03-10T20:57:44.634Z,5.40
2023-03-10T21:00:31.737Z,5.40
2023-03-10T21:03:18.478Z,5.40
2023-03-10T21:06:05.198Z,5.40
2023-03-10T21:08:53.176Z,5.40
2023-03-10T21:11:40.502Z,5.40
2023-03-10T21:14:27.443Z,5.30
2023-03-10T21:17:14.071Z,5.40
2023-03-10T21:20:01.120Z,5.40
2023-03-10T21:22:47.982Z,5.40
2023-03-10T21:25:35.939Z,5.40
2023-03-10T21:28:22.385Z,5.40
2023-03-10T21:31:08.730Z,5.40
2023-03-10T21:33:55.661Z,5.30
2023-03-10T21:36:42.428Z,5.30
2023-03-10T21:39:28.923Z,5.30
2023-03-10T21:42:17.078Z,5.30
2023-03-10T21:45:03.842Z,5.20
2023-03-10T21:47:50.535Z,5.20
2023-03-10T21:50:37.885Z,5.20
2023-03-10T21:53:26.454Z,5.20
2023-03-10T21:56:13.277Z,5.20
2023-03-10T21:59:01.161Z,5.20
2023-03-10T22:01:47.580Z,5.20
2023-03-10T22:04:34.649Z,5.20
2023-03-10T22:07:21.391Z,5.20
2023-03-10T22:10:09.593Z,5.20
2023-03-10T22:12:56.148Z,5.20
2023-03-10T22:15:43.894Z,5.20
2023-03-10T22:18:30.858Z,5.20
2023-03-10T22:21:17.301Z,5.20
2023-03-10T22:24:03.843Z,5.20
2023-03-10T22:26:50.464Z,5.20
2023-03-10T22:29:36.882Z,5.10
2023-03-10T22:32:24.969Z,5.00
2023-03-10T22:35:12.490Z,5.00
2023-03-10T22:37:58.840Z,5.10
2023-03-10T22:40:45.122Z,5.10
2023-03-10T22:43:31.534Z,5.20
2023-03-10T22:46:18.448Z,5.20
2023-03-10T22:49:06.605Z,5.10
2023-03-10T22:51:53.200Z,5.10
2023-03-10T22:54:40.124Z,5.10
2023-03-10T22:57:26.611Z,5.10
2023-03-10T23:00:15.451Z,5.00
2023-03-10T23:03:02.626Z,5.00
2023-03-10T23:05:50.870Z,5.00
2023-03-10T23:08:37.982Z,4.90
2023-03-10T23:11:24.873Z,4.80
2023-03-10T23:14:11.850Z,4.80
2023-03-10T23:16:58.390Z,4.80
2023-03-10T23:19:44.773Z,4.80
2023-03-10T23:22:32.613Z,4.70
2023-03-10T23:25:20.602Z,4.70
2023-03-10T23:28:09.260Z,4.70
2023-03-10T23:30:55.714Z,4.60
2023-03-10T23:33:42.677Z,4.50
2023-03-10T23:36:29.130Z,4.50
2023-03-10T23:39:17.988Z,4.50
2023-03-10T23:42:04.474Z,4.50
2023-03-10T23:44:51.583Z,4.50
2023-03-10T23:47:39.798Z,4.50
2023-03-10T23:50:28.419Z,4.40
2023-03-10T23:53:16.126Z,4.30
2023-03-10T23:56:04.285Z,4.30
2023-03-10T23:58:50.610Z,4.30
